VLG8RN EBBR-LEBL
Flight info
| Callsign | VLG8RN |
|---|---|
| Flight time | 1h 42m |
| Altitude | 33000 |
| Route | CIV N872 LESDO DCT KOVIN DCT DUCRA/N0450F350 UM728 RESMI UN857 DISAK DCT DIRMO DCT VALKU DCT ATSUP DCT MINSO DCT DEGOL DCT PPG DCT ALBER |
| Aircraft | A320/M-SDE3FGHIRWY/LB1 |
Departure
| Time | 2026-05-07 18:15 |
|---|---|
| Airport | Brussels Airport (EBBR) |
Arrival
| Time | 2026-05-07 19:57 |
|---|---|
| Airport | Josep Tarradellas Barcelona-El Prat Airport (LEBL) |
| Time | Latitude | Longitude | Altitude | Speed | Heading |
|---|---|---|---|---|---|
| 2026-05-07 17:47 | 50.90223 | 4.48411 | 118 ft | 0 kts | 335° |
| 2026-05-07 18:04 | 50.90223 | 4.48412 | 121 ft | 2 kts | 335° |
| 2026-05-07 18:04 | 50.90200 | 4.48429 | 118 ft | 4 kts | 333° |
| 2026-05-07 18:04 | 50.90180 | 4.48444 | 118 ft | 4 kts | 338° |
| 2026-05-07 18:04 | 50.90157 | 4.48449 | 121 ft | 4 kts | 32° |
| 2026-05-07 18:05 | 50.90143 | 4.48421 | 119 ft | 4 kts | 65° |
| 2026-05-07 18:05 | 50.90131 | 4.48382 | 120 ft | 4 kts | 65° |
| 2026-05-07 18:05 | 50.90127 | 4.48370 | 121 ft | 1 kts | 65° |
| 2026-05-07 18:09 | 50.90128 | 4.48371 | 124 ft | 1 kts | 65° |
| 2026-05-07 18:10 | 50.90137 | 4.48402 | 121 ft | 6 kts | 65° |
| 2026-05-07 18:10 | 50.90163 | 4.48498 | 124 ft | 13 kts | 66° |
| 2026-05-07 18:10 | 50.90212 | 4.48663 | 122 ft | 19 kts | 65° |
| 2026-05-07 18:10 | 50.90269 | 4.48861 | 124 ft | 21 kts | 65° |
| 2026-05-07 18:11 | 50.90331 | 4.49078 | 123 ft | 23 kts | 65° |
| 2026-05-07 18:11 | 50.90399 | 4.49312 | 121 ft | 24 kts | 65° |
| 2026-05-07 18:11 | 50.90459 | 4.49523 | 121 ft | 13 kts | 66° |
| 2026-05-07 18:11 | 50.90518 | 4.49618 | 122 ft | 13 kts | 17° |
| 2026-05-07 18:12 | 50.90614 | 4.49657 | 124 ft | 16 kts | 14° |
| 2026-05-07 18:12 | 50.90727 | 4.49703 | 121 ft | 17 kts | 14° |
| 2026-05-07 18:12 | 50.90757 | 4.49716 | 124 ft | 4 kts | 14° |
| 2026-05-07 18:12 | 50.90812 | 4.49738 | 120 ft | 13 kts | 14° |
| 2026-05-07 18:13 | 50.90912 | 4.49782 | 123 ft | 16 kts | 23° |
| 2026-05-07 18:13 | 50.91014 | 4.49892 | 118 ft | 20 kts | 26° |
| 2026-05-07 18:13 | 50.91114 | 4.49940 | 118 ft | 11 kts | 341° |
| 2026-05-07 18:13 | 50.91121 | 4.49824 | 117 ft | 13 kts | 246° |
| 2026-05-07 18:14 | 50.91077 | 4.49670 | 118 ft | 24 kts | 245° |
| 2026-05-07 18:14 | 50.90927 | 4.49150 | 117 ft | 84 kts | 245° |
| 2026-05-07 18:14 | 50.90604 | 4.48032 | 119 ft | 137 kts | 245° |
| 2026-05-07 18:14 | 50.90154 | 4.46471 | 256 ft | 164 kts | 246° |
| 2026-05-07 18:15 | 50.89909 | 4.44748 | 825 ft | 162 kts | 280° |
| 2026-05-07 18:15 | 50.90271 | 4.43067 | 1394 ft | 164 kts | 292° |
| 2026-05-07 18:15 | 50.90551 | 4.41198 | 1676 ft | 184 kts | 270° |
| 2026-05-07 18:15 | 50.90547 | 4.39066 | 1988 ft | 203 kts | 272° |
| 2026-05-07 18:16 | 50.90632 | 4.36712 | 2295 ft | 225 kts | 274° |
| 2026-05-07 18:16 | 50.90758 | 4.34134 | 2777 ft | 245 kts | 274° |
| 2026-05-07 18:16 | 50.90549 | 4.31422 | 3341 ft | 259 kts | 247° |
| 2026-05-07 18:16 | 50.89473 | 4.29067 | 4133 ft | 266 kts | 220° |
| 2026-05-07 18:17 | 50.87976 | 4.27325 | 5025 ft | 268 kts | 217° |
| 2026-05-07 18:17 | 50.86550 | 4.25414 | 5940 ft | 269 kts | 222° |
| 2026-05-07 18:17 | 50.85192 | 4.23364 | 6834 ft | 270 kts | 224° |
| 2026-05-07 18:17 | 50.83860 | 4.21300 | 7643 ft | 273 kts | 224° |
| 2026-05-07 18:18 | 50.82473 | 4.19172 | 8471 ft | 275 kts | 224° |
| 2026-05-07 18:18 | 50.81076 | 4.17074 | 9276 ft | 278 kts | 223° |
| 2026-05-07 18:18 | 50.79648 | 4.14978 | 10051 ft | 282 kts | 223° |
| 2026-05-07 18:18 | 50.78172 | 4.12845 | 10466 ft | 298 kts | 223° |
| 2026-05-07 18:19 | 50.76578 | 4.10560 | 10640 ft | 321 kts | 222° |
| 2026-05-07 18:19 | 50.74870 | 4.08117 | 10830 ft | 340 kts | 222° |
| 2026-05-07 18:19 | 50.73095 | 4.05584 | 11370 ft | 347 kts | 222° |
| 2026-05-07 18:19 | 50.71296 | 4.03018 | 11997 ft | 350 kts | 222° |
| 2026-05-07 18:20 | 50.69478 | 4.00432 | 12647 ft | 353 kts | 222° |
| 2026-05-07 18:20 | 50.67644 | 3.97827 | 13311 ft | 356 kts | 222° |
| 2026-05-07 18:20 | 50.65794 | 3.95197 | 13961 ft | 360 kts | 222° |
| 2026-05-07 18:20 | 50.63931 | 3.92552 | 14543 ft | 362 kts | 222° |
| 2026-05-07 18:21 | 50.62046 | 3.89886 | 15111 ft | 365 kts | 222° |
| 2026-05-07 18:21 | 50.60149 | 3.87203 | 15676 ft | 368 kts | 223° |
| 2026-05-07 18:21 | 50.58238 | 3.84583 | 16218 ft | 371 kts | 218° |
| 2026-05-07 18:21 | 50.56050 | 3.82397 | 16783 ft | 375 kts | 208° |
| 2026-05-07 18:22 | 50.53658 | 3.80713 | 17360 ft | 378 kts | 204° |
| 2026-05-07 18:22 | 50.52026 | 3.79601 | 17754 ft | 380 kts | 205° |
| 2026-05-07 18:22 | 50.48754 | 3.77374 | 18513 ft | 385 kts | 205° |
| 2026-05-07 18:22 | 50.46288 | 3.75696 | 19045 ft | 388 kts | 205° |
| 2026-05-07 18:23 | 50.43811 | 3.74010 | 19603 ft | 390 kts | 205° |
| 2026-05-07 18:23 | 50.41346 | 3.72332 | 20147 ft | 393 kts | 205° |
| 2026-05-07 18:23 | 50.38830 | 3.70626 | 20693 ft | 395 kts | 205° |
| 2026-05-07 18:23 | 50.36298 | 3.68914 | 21198 ft | 397 kts | 205° |
| 2026-05-07 18:24 | 50.33752 | 3.67194 | 21687 ft | 400 kts | 205° |
| 2026-05-07 18:24 | 50.31191 | 3.65467 | 22155 ft | 402 kts | 205° |
| 2026-05-07 18:24 | 50.28615 | 3.63728 | 22619 ft | 404 kts | 205° |
| 2026-05-07 18:24 | 50.26024 | 3.61977 | 23066 ft | 407 kts | 205° |
| 2026-05-07 18:25 | 50.23418 | 3.60219 | 23518 ft | 409 kts | 205° |
| 2026-05-07 18:25 | 50.20761 | 3.58433 | 23904 ft | 411 kts | 205° |
| 2026-05-07 18:25 | 50.18131 | 3.56666 | 24268 ft | 413 kts | 205° |
| 2026-05-07 18:25 | 50.15483 | 3.54887 | 24624 ft | 415 kts | 205° |
| 2026-05-07 18:26 | 50.12822 | 3.53100 | 24948 ft | 418 kts | 205° |
| 2026-05-07 18:26 | 50.10145 | 3.51305 | 25275 ft | 420 kts | 205° |
| 2026-05-07 18:26 | 50.07454 | 3.49501 | 25602 ft | 422 kts | 205° |
| 2026-05-07 18:26 | 50.04751 | 3.47690 | 25940 ft | 424 kts | 205° |
| 2026-05-07 18:27 | 50.02035 | 3.45872 | 26276 ft | 426 kts | 205° |
| 2026-05-07 18:27 | 49.99343 | 3.44075 | 26606 ft | 428 kts | 205° |
| 2026-05-07 18:27 | 49.96600 | 3.42251 | 26925 ft | 430 kts | 205° |
| 2026-05-07 18:27 | 49.94743 | 3.41020 | 27164 ft | 431 kts | 205° |
| 2026-05-07 18:28 | 49.91075 | 3.38588 | 27589 ft | 434 kts | 205° |
| 2026-05-07 18:28 | 49.88296 | 3.36743 | 27947 ft | 435 kts | 205° |
| 2026-05-07 18:28 | 49.85484 | 3.34879 | 28422 ft | 433 kts | 205° |
| 2026-05-07 18:28 | 49.82722 | 3.33051 | 28880 ft | 432 kts | 205° |
| 2026-05-07 18:29 | 49.79963 | 3.31225 | 29344 ft | 431 kts | 205° |
| 2026-05-07 18:29 | 49.77208 | 3.29407 | 29800 ft | 430 kts | 205° |
| 2026-05-07 18:29 | 49.74460 | 3.27592 | 30243 ft | 429 kts | 205° |
| 2026-05-07 18:29 | 49.71718 | 3.25784 | 30644 ft | 428 kts | 205° |
| 2026-05-07 18:30 | 49.69019 | 3.24010 | 31027 ft | 427 kts | 205° |
| 2026-05-07 18:30 | 49.66292 | 3.22222 | 31455 ft | 425 kts | 205° |
| 2026-05-07 18:30 | 49.63573 | 3.20441 | 31879 ft | 424 kts | 205° |
| 2026-05-07 18:30 | 49.60864 | 3.18663 | 32290 ft | 423 kts | 205° |
| 2026-05-07 18:31 | 49.58162 | 3.16889 | 32702 ft | 422 kts | 205° |
| 2026-05-07 18:31 | 49.55462 | 3.15123 | 33005 ft | 422 kts | 205° |
| 2026-05-07 18:31 | 49.52747 | 3.13352 | 33065 ft | 427 kts | 205° |
| 2026-05-07 18:32 | 49.47320 | 3.09368 | 33053 ft | 430 kts | 214° |
| 2026-05-07 18:32 | 49.42341 | 3.04286 | 33058 ft | 430 kts | 215° |
| 2026-05-07 18:33 | 49.37349 | 2.99208 | 33061 ft | 430 kts | 215° |
| 2026-05-07 18:33 | 49.32352 | 2.94145 | 33056 ft | 430 kts | 215° |
| 2026-05-07 18:34 | 49.27354 | 2.89101 | 33057 ft | 430 kts | 215° |
| 2026-05-07 18:34 | 49.22345 | 2.84062 | 33047 ft | 430 kts | 215° |
| 2026-05-07 18:35 | 49.17338 | 2.79041 | 33046 ft | 431 kts | 215° |
| 2026-05-07 18:35 | 49.12357 | 2.74052 | 33051 ft | 431 kts | 215° |
| 2026-05-07 18:36 | 49.07345 | 2.69033 | 33055 ft | 431 kts | 215° |
| 2026-05-07 18:36 | 49.02367 | 2.64052 | 33053 ft | 431 kts | 215° |
| 2026-05-07 18:37 | 48.97320 | 2.59031 | 33069 ft | 430 kts | 214° |
| 2026-05-07 18:37 | 48.92305 | 2.54060 | 33070 ft | 430 kts | 214° |
| 2026-05-07 18:38 | 48.87294 | 2.49088 | 33070 ft | 430 kts | 214° |
| 2026-05-07 18:38 | 48.82286 | 2.44138 | 33042 ft | 430 kts | 214° |
| 2026-05-07 18:39 | 48.77267 | 2.39194 | 33039 ft | 430 kts | 214° |
| 2026-05-07 18:39 | 48.72249 | 2.34250 | 33044 ft | 430 kts | 214° |
| 2026-05-07 18:40 | 48.67227 | 2.29316 | 33046 ft | 430 kts | 214° |
| 2026-05-07 18:40 | 48.62198 | 2.24405 | 33041 ft | 430 kts | 214° |
| 2026-05-07 18:41 | 48.57045 | 2.19825 | 33041 ft | 432 kts | 205° |
| 2026-05-07 18:41 | 48.52253 | 2.17697 | 33040 ft | 434 kts | 194° |
| 2026-05-07 18:42 | 48.46343 | 2.15799 | 33030 ft | 434 kts | 194° |
| 2026-05-07 18:42 | 48.40396 | 2.13874 | 33021 ft | 434 kts | 194° |
| 2026-05-07 18:43 | 48.34530 | 2.11982 | 33028 ft | 434 kts | 194° |
| 2026-05-07 18:43 | 48.28578 | 2.10453 | 33030 ft | 436 kts | 185° |
| 2026-05-07 18:44 | 48.22460 | 2.11235 | 33030 ft | 440 kts | 175° |
| 2026-05-07 18:44 | 48.16394 | 2.12529 | 33027 ft | 440 kts | 175° |
| 2026-05-07 18:45 | 48.10326 | 2.13344 | 33021 ft | 437 kts | 181° |
| 2026-05-07 18:45 | 48.04241 | 2.13693 | 33026 ft | 438 kts | 181° |
| 2026-05-07 18:46 | 47.98154 | 2.14049 | 33018 ft | 438 kts | 181° |
| 2026-05-07 18:46 | 47.92070 | 2.14410 | 33024 ft | 437 kts | 181° |
| 2026-05-07 18:47 | 47.86057 | 2.14766 | 33030 ft | 437 kts | 181° |
| 2026-05-07 18:47 | 47.79983 | 2.15124 | 33007 ft | 437 kts | 181° |
| 2026-05-07 18:48 | 47.73905 | 2.15483 | 33006 ft | 437 kts | 181° |
| 2026-05-07 18:48 | 47.67829 | 2.15840 | 33002 ft | 437 kts | 181° |
| 2026-05-07 18:49 | 47.61762 | 2.16189 | 33004 ft | 437 kts | 181° |
| 2026-05-07 18:49 | 47.55687 | 2.16548 | 33001 ft | 437 kts | 181° |
| 2026-05-07 18:50 | 47.49613 | 2.16898 | 33014 ft | 437 kts | 181° |
| 2026-05-07 18:50 | 47.43543 | 2.17240 | 33013 ft | 436 kts | 181° |
| 2026-05-07 18:51 | 47.37486 | 2.17582 | 33007 ft | 436 kts | 181° |
| 2026-05-07 18:51 | 47.31425 | 2.17935 | 33007 ft | 435 kts | 181° |
| 2026-05-07 18:52 | 47.25379 | 2.18283 | 33009 ft | 435 kts | 181° |
| 2026-05-07 18:52 | 47.19328 | 2.18630 | 33014 ft | 435 kts | 181° |
| 2026-05-07 18:53 | 47.13278 | 2.18973 | 33006 ft | 435 kts | 181° |
| 2026-05-07 18:53 | 47.07278 | 2.20259 | 33012 ft | 441 kts | 166° |
| 2026-05-07 18:54 | 47.01536 | 2.23549 | 33009 ft | 443 kts | 162° |
| 2026-05-07 18:54 | 46.95805 | 2.26898 | 33007 ft | 443 kts | 162° |
| 2026-05-07 18:55 | 46.90074 | 2.30232 | 33008 ft | 443 kts | 162° |
| 2026-05-07 18:55 | 46.84347 | 2.33561 | 33010 ft | 443 kts | 162° |
| 2026-05-07 18:56 | 46.78625 | 2.36872 | 33007 ft | 442 kts | 162° |
| 2026-05-07 18:56 | 46.72904 | 2.40185 | 33007 ft | 442 kts | 162° |
| 2026-05-07 18:57 | 46.67182 | 2.43490 | 32996 ft | 442 kts | 163° |
| 2026-05-07 18:57 | 46.61451 | 2.46783 | 32995 ft | 443 kts | 163° |
| 2026-05-07 18:58 | 46.55710 | 2.50072 | 32998 ft | 443 kts | 163° |
| 2026-05-07 18:58 | 46.49968 | 2.53366 | 32997 ft | 444 kts | 163° |
| 2026-05-07 18:59 | 46.44223 | 2.56653 | 33006 ft | 444 kts | 162° |
| 2026-05-07 18:59 | 46.38485 | 2.59944 | 33007 ft | 443 kts | 162° |
| 2026-05-07 19:00 | 46.32747 | 2.63217 | 33007 ft | 443 kts | 163° |
| 2026-05-07 19:00 | 46.27009 | 2.66463 | 33017 ft | 443 kts | 163° |
| 2026-05-07 19:01 | 46.21277 | 2.69706 | 33014 ft | 442 kts | 163° |
| 2026-05-07 19:01 | 46.15547 | 2.72948 | 33018 ft | 442 kts | 163° |
| 2026-05-07 19:02 | 46.09820 | 2.76183 | 33017 ft | 442 kts | 162° |
| 2026-05-07 19:02 | 46.04095 | 2.79407 | 32998 ft | 442 kts | 163° |
| 2026-05-07 19:03 | 45.98363 | 2.82615 | 32997 ft | 442 kts | 163° |
| 2026-05-07 19:03 | 45.92603 | 2.85690 | 32993 ft | 442 kts | 164° |
| 2026-05-07 19:04 | 45.86825 | 2.88691 | 32993 ft | 441 kts | 164° |
| 2026-05-07 19:04 | 45.81051 | 2.91696 | 32997 ft | 442 kts | 164° |
| 2026-05-07 19:05 | 45.75241 | 2.94488 | 33005 ft | 437 kts | 172° |
| 2026-05-07 19:05 | 45.69254 | 2.95135 | 33007 ft | 430 kts | 185° |
| 2026-05-07 19:06 | 45.63263 | 2.94969 | 33009 ft | 430 kts | 184° |
| 2026-05-07 19:06 | 45.54283 | 2.94729 | 33013 ft | 430 kts | 184° |
| 2026-05-07 19:07 | 45.48297 | 2.94568 | 33006 ft | 430 kts | 184° |
| 2026-05-07 19:07 | 45.42307 | 2.94409 | 33009 ft | 430 kts | 184° |
| 2026-05-07 19:08 | 45.36317 | 2.94255 | 33016 ft | 431 kts | 184° |
| 2026-05-07 19:08 | 45.30329 | 2.94105 | 33014 ft | 430 kts | 184° |
| 2026-05-07 19:09 | 45.24343 | 2.93946 | 33017 ft | 430 kts | 184° |
| 2026-05-07 19:09 | 45.18353 | 2.93802 | 33014 ft | 430 kts | 184° |
| 2026-05-07 19:10 | 45.12367 | 2.93652 | 33010 ft | 430 kts | 184° |
| 2026-05-07 19:10 | 45.06387 | 2.93489 | 33016 ft | 430 kts | 184° |
| 2026-05-07 19:11 | 45.00406 | 2.93330 | 33015 ft | 430 kts | 184° |
| 2026-05-07 19:11 | 44.94430 | 2.93166 | 33010 ft | 430 kts | 184° |
| 2026-05-07 19:12 | 44.88455 | 2.93008 | 33010 ft | 429 kts | 184° |
| 2026-05-07 19:12 | 44.82481 | 2.92826 | 33009 ft | 429 kts | 185° |
| 2026-05-07 19:13 | 44.76532 | 2.92397 | 33006 ft | 428 kts | 186° |
| 2026-05-07 19:13 | 44.70589 | 2.91890 | 33003 ft | 428 kts | 186° |
| 2026-05-07 19:14 | 44.64647 | 2.91422 | 32999 ft | 428 kts | 186° |
| 2026-05-07 19:14 | 44.58700 | 2.90995 | 32998 ft | 428 kts | 186° |
| 2026-05-07 19:15 | 44.52759 | 2.90581 | 32986 ft | 427 kts | 186° |
| 2026-05-07 19:15 | 44.46823 | 2.90157 | 32985 ft | 427 kts | 186° |
| 2026-05-07 19:16 | 44.40883 | 2.89716 | 32991 ft | 427 kts | 186° |
| 2026-05-07 19:16 | 44.34947 | 2.89282 | 32991 ft | 427 kts | 186° |
| 2026-05-07 19:17 | 44.29021 | 2.88858 | 32993 ft | 426 kts | 186° |
| 2026-05-07 19:17 | 44.23098 | 2.88434 | 32993 ft | 426 kts | 186° |
| 2026-05-07 19:18 | 44.17184 | 2.88008 | 32991 ft | 425 kts | 186° |
| 2026-05-07 19:18 | 44.11292 | 2.87585 | 33002 ft | 423 kts | 186° |
| 2026-05-07 19:19 | 44.05418 | 2.87164 | 33002 ft | 422 kts | 186° |
| 2026-05-07 19:19 | 43.99555 | 2.86744 | 33003 ft | 422 kts | 186° |
| 2026-05-07 19:20 | 43.93713 | 2.86323 | 33011 ft | 419 kts | 187° |
| 2026-05-07 19:20 | 43.88878 | 2.85982 | 33015 ft | 418 kts | 187° |
| 2026-05-07 19:21 | 43.83088 | 2.85578 | 33015 ft | 417 kts | 187° |
| 2026-05-07 19:21 | 43.77306 | 2.85182 | 33010 ft | 415 kts | 187° |
| 2026-05-07 19:22 | 43.71526 | 2.85145 | 33020 ft | 415 kts | 184° |
| 2026-05-07 19:22 | 43.65754 | 2.85336 | 33019 ft | 414 kts | 184° |
| 2026-05-07 19:23 | 43.59997 | 2.85505 | 33017 ft | 413 kts | 184° |
| 2026-05-07 19:23 | 43.54270 | 2.85593 | 33021 ft | 410 kts | 185° |
| 2026-05-07 19:24 | 43.48582 | 2.85658 | 33024 ft | 408 kts | 185° |
| 2026-05-07 19:24 | 43.42912 | 2.85730 | 33022 ft | 407 kts | 185° |
| 2026-05-07 19:25 | 43.37253 | 2.85813 | 33004 ft | 406 kts | 185° |
| 2026-05-07 19:25 | 43.31622 | 2.85902 | 33010 ft | 404 kts | 185° |
| 2026-05-07 19:26 | 43.26016 | 2.85982 | 33005 ft | 403 kts | 185° |
| 2026-05-07 19:26 | 43.20416 | 2.86061 | 33001 ft | 402 kts | 185° |
| 2026-05-07 19:27 | 43.14825 | 2.86142 | 32997 ft | 401 kts | 185° |
| 2026-05-07 19:27 | 43.09250 | 2.86219 | 33000 ft | 401 kts | 185° |
| 2026-05-07 19:28 | 43.03670 | 2.86295 | 32996 ft | 401 kts | 185° |
| 2026-05-07 19:28 | 42.98103 | 2.86376 | 32994 ft | 400 kts | 184° |
| 2026-05-07 19:29 | 42.92560 | 2.86458 | 32442 ft | 396 kts | 184° |
| 2026-05-07 19:29 | 42.89795 | 2.86501 | 31582 ft | 399 kts | 184° |
| 2026-05-07 19:29 | 42.87009 | 2.86539 | 30696 ft | 402 kts | 184° |
| 2026-05-07 19:30 | 42.84195 | 2.86577 | 29759 ft | 406 kts | 184° |
| 2026-05-07 19:30 | 42.81350 | 2.86614 | 28657 ft | 412 kts | 183° |
| 2026-05-07 19:30 | 42.78492 | 2.86654 | 27853 ft | 411 kts | 183° |
| 2026-05-07 19:30 | 42.75641 | 2.86693 | 27092 ft | 409 kts | 184° |
| 2026-05-07 19:31 | 42.72816 | 2.86447 | 26353 ft | 405 kts | 188° |
| 2026-05-07 19:31 | 42.70010 | 2.86118 | 25633 ft | 404 kts | 188° |
| 2026-05-07 19:31 | 42.67211 | 2.85790 | 24950 ft | 404 kts | 187° |
| 2026-05-07 19:31 | 42.64414 | 2.85462 | 24256 ft | 403 kts | 187° |
| 2026-05-07 19:32 | 42.61621 | 2.85133 | 23595 ft | 403 kts | 187° |
| 2026-05-07 19:32 | 42.58833 | 2.84806 | 22845 ft | 402 kts | 187° |
| 2026-05-07 19:32 | 42.56051 | 2.84481 | 22183 ft | 400 kts | 187° |
| 2026-05-07 19:32 | 42.53290 | 2.84158 | 21557 ft | 397 kts | 187° |
| 2026-05-07 19:33 | 42.50550 | 2.83837 | 20989 ft | 395 kts | 187° |
| 2026-05-07 19:33 | 42.47848 | 2.83522 | 20829 ft | 383 kts | 186° |
| 2026-05-07 19:33 | 42.45234 | 2.83205 | 20659 ft | 372 kts | 189° |
| 2026-05-07 19:33 | 42.42710 | 2.82621 | 20269 ft | 366 kts | 192° |
| 2026-05-07 19:34 | 42.40214 | 2.82003 | 19801 ft | 364 kts | 192° |
| 2026-05-07 19:34 | 42.37727 | 2.81386 | 19304 ft | 362 kts | 192° |
| 2026-05-07 19:34 | 42.35253 | 2.80776 | 18819 ft | 361 kts | 192° |
| 2026-05-07 19:34 | 42.32784 | 2.80166 | 18329 ft | 360 kts | 191° |
| 2026-05-07 19:35 | 42.30330 | 2.79559 | 18011 ft | 360 kts | 191° |
| 2026-05-07 19:35 | 42.27860 | 2.78952 | 17984 ft | 361 kts | 191° |
| 2026-05-07 19:35 | 42.25382 | 2.78347 | 17990 ft | 362 kts | 191° |
| 2026-05-07 19:35 | 42.22897 | 2.77743 | 17991 ft | 362 kts | 191° |
| 2026-05-07 19:36 | 42.20414 | 2.77140 | 17991 ft | 363 kts | 191° |
| 2026-05-07 19:36 | 42.17933 | 2.76534 | 17994 ft | 363 kts | 191° |
| 2026-05-07 19:36 | 42.15488 | 2.75730 | 17993 ft | 361 kts | 201° |
| 2026-05-07 19:36 | 42.13227 | 2.74279 | 17999 ft | 360 kts | 213° |
| 2026-05-07 19:37 | 42.11249 | 2.72244 | 17999 ft | 359 kts | 224° |
| 2026-05-07 19:37 | 42.09562 | 2.69771 | 18001 ft | 359 kts | 229° |
| 2026-05-07 19:37 | 42.07914 | 2.67247 | 17778 ft | 358 kts | 229° |
| 2026-05-07 19:37 | 42.06267 | 2.64737 | 17522 ft | 357 kts | 229° |
| 2026-05-07 19:38 | 42.04619 | 2.62234 | 17254 ft | 356 kts | 229° |
| 2026-05-07 19:38 | 42.02977 | 2.59748 | 16986 ft | 355 kts | 229° |
| 2026-05-07 19:38 | 42.01342 | 2.57277 | 16701 ft | 354 kts | 229° |
| 2026-05-07 19:38 | 41.99710 | 2.54810 | 16310 ft | 352 kts | 229° |
| 2026-05-07 19:39 | 41.98086 | 2.52357 | 15908 ft | 350 kts | 229° |
| 2026-05-07 19:39 | 41.96472 | 2.49917 | 15519 ft | 348 kts | 229° |
| 2026-05-07 19:39 | 41.94865 | 2.47490 | 15118 ft | 347 kts | 229° |
| 2026-05-07 19:39 | 41.93265 | 2.45079 | 14730 ft | 345 kts | 229° |
| 2026-05-07 19:40 | 41.91672 | 2.42683 | 14344 ft | 343 kts | 229° |
| 2026-05-07 19:40 | 41.90089 | 2.40297 | 13942 ft | 342 kts | 228° |
| 2026-05-07 19:40 | 41.88514 | 2.37921 | 13536 ft | 341 kts | 228° |
| 2026-05-07 19:40 | 41.86943 | 2.35550 | 13142 ft | 339 kts | 228° |
| 2026-05-07 19:41 | 41.85374 | 2.33186 | 12749 ft | 337 kts | 228° |
| 2026-05-07 19:41 | 41.83815 | 2.30842 | 12369 ft | 336 kts | 228° |
| 2026-05-07 19:41 | 41.82266 | 2.28513 | 12000 ft | 334 kts | 228° |
| 2026-05-07 19:41 | 41.80719 | 2.26185 | 11617 ft | 334 kts | 228° |
| 2026-05-07 19:42 | 41.79181 | 2.23873 | 11238 ft | 332 kts | 227° |
| 2026-05-07 19:42 | 41.77547 | 2.21720 | 10861 ft | 329 kts | 217° |
| 2026-05-07 19:42 | 41.75618 | 2.20108 | 10485 ft | 325 kts | 204° |
| 2026-05-07 19:42 | 41.73527 | 2.19137 | 10296 ft | 308 kts | 194° |
| 2026-05-07 19:43 | 41.71514 | 2.18387 | 9939 ft | 295 kts | 195° |
| 2026-05-07 19:43 | 41.69576 | 2.17652 | 9671 ft | 287 kts | 195° |
| 2026-05-07 19:43 | 41.67648 | 2.16915 | 9536 ft | 288 kts | 195° |
| 2026-05-07 19:43 | 41.65720 | 2.16176 | 9406 ft | 288 kts | 195° |
| 2026-05-07 19:44 | 41.63798 | 2.15440 | 9270 ft | 288 kts | 195° |
| 2026-05-07 19:44 | 41.61874 | 2.14707 | 9136 ft | 287 kts | 195° |
| 2026-05-07 19:44 | 41.59952 | 2.13980 | 9006 ft | 287 kts | 195° |
| 2026-05-07 19:44 | 41.58034 | 2.13257 | 8876 ft | 286 kts | 194° |
| 2026-05-07 19:45 | 41.56120 | 2.12537 | 8751 ft | 286 kts | 195° |
| 2026-05-07 19:45 | 41.55421 | 2.12274 | 8699 ft | 285 kts | 195° |
| 2026-05-07 19:45 | 41.54185 | 2.11775 | 8608 ft | 285 kts | 200° |
| 2026-05-07 19:45 | 41.52438 | 2.10526 | 8483 ft | 286 kts | 216° |
| 2026-05-07 19:46 | 41.51107 | 2.08855 | 8369 ft | 287 kts | 230° |
| 2026-05-07 19:46 | 41.50688 | 2.08112 | 8321 ft | 287 kts | 236° |
| 2026-05-07 19:46 | 41.49646 | 2.05843 | 8195 ft | 287 kts | 238° |
| 2026-05-07 19:46 | 41.48610 | 2.03569 | 8067 ft | 286 kts | 238° |
| 2026-05-07 19:47 | 41.47574 | 2.01305 | 7953 ft | 285 kts | 238° |
| 2026-05-07 19:47 | 41.46535 | 1.99046 | 7814 ft | 285 kts | 238° |
| 2026-05-07 19:47 | 41.45499 | 1.96793 | 7694 ft | 285 kts | 238° |
| 2026-05-07 19:47 | 41.44464 | 1.94542 | 7569 ft | 285 kts | 238° |
| 2026-05-07 19:48 | 41.43428 | 1.92295 | 7443 ft | 284 kts | 238° |
| 2026-05-07 19:48 | 41.42398 | 1.90064 | 7322 ft | 283 kts | 238° |
| 2026-05-07 19:48 | 41.41368 | 1.87833 | 7190 ft | 283 kts | 238° |
| 2026-05-07 19:48 | 41.40341 | 1.85608 | 6979 ft | 281 kts | 238° |
| 2026-05-07 19:49 | 41.39319 | 1.83393 | 6655 ft | 280 kts | 238° |
| 2026-05-07 19:49 | 41.38301 | 1.81188 | 6330 ft | 278 kts | 238° |
| 2026-05-07 19:49 | 41.37290 | 1.78996 | 5997 ft | 277 kts | 238° |
| 2026-05-07 19:49 | 41.36285 | 1.76815 | 5684 ft | 276 kts | 237° |
| 2026-05-07 19:50 | 41.35203 | 1.74730 | 5368 ft | 272 kts | 223° |
| 2026-05-07 19:50 | 41.33623 | 1.73447 | 5054 ft | 265 kts | 195° |
| 2026-05-07 19:50 | 41.31829 | 1.73324 | 4493 ft | 258 kts | 166° |
| 2026-05-07 19:50 | 41.30168 | 1.74186 | 3857 ft | 258 kts | 154° |
| 2026-05-07 19:51 | 41.28543 | 1.75190 | 3365 ft | 254 kts | 154° |
| 2026-05-07 19:51 | 41.26978 | 1.76161 | 3242 ft | 244 kts | 154° |
| 2026-05-07 19:51 | 41.25474 | 1.77095 | 3133 ft | 233 kts | 154° |
| 2026-05-07 19:51 | 41.24022 | 1.77986 | 3036 ft | 228 kts | 154° |
| 2026-05-07 19:52 | 41.22582 | 1.78865 | 3045 ft | 228 kts | 154° |
| 2026-05-07 19:52 | 41.21198 | 1.79860 | 3044 ft | 225 kts | 137° |
| 2026-05-07 19:52 | 41.20431 | 1.81609 | 3047 ft | 223 kts | 97° |
| 2026-05-07 19:52 | 41.20744 | 1.83589 | 3052 ft | 226 kts | 56° |
| 2026-05-07 19:53 | 41.21817 | 1.85115 | 3042 ft | 223 kts | 48° |
| 2026-05-07 19:53 | 41.22543 | 1.86810 | 3040 ft | 204 kts | 70° |
| 2026-05-07 19:53 | 41.23064 | 1.88491 | 3012 ft | 191 kts | 68° |
| 2026-05-07 19:53 | 41.23602 | 1.90084 | 2784 ft | 187 kts | 66° |
| 2026-05-07 19:54 | 41.24137 | 1.91642 | 2536 ft | 184 kts | 66° |
| 2026-05-07 19:54 | 41.24665 | 1.93177 | 2298 ft | 182 kts | 66° |
| 2026-05-07 19:54 | 41.25188 | 1.94693 | 2059 ft | 179 kts | 66° |
| 2026-05-07 19:54 | 41.25692 | 1.96156 | 1818 ft | 168 kts | 66° |
| 2026-05-07 19:55 | 41.26157 | 1.97507 | 1599 ft | 154 kts | 66° |
| 2026-05-07 19:55 | 41.26583 | 1.98746 | 1427 ft | 142 kts | 65° |
| 2026-05-07 19:55 | 41.26984 | 1.99912 | 1231 ft | 136 kts | 66° |
| 2026-05-07 19:55 | 41.27375 | 2.01048 | 1046 ft | 135 kts | 66° |
| 2026-05-07 19:56 | 41.27765 | 2.02184 | 849 ft | 135 kts | 66° |
| 2026-05-07 19:56 | 41.28156 | 2.03327 | 679 ft | 136 kts | 66° |
| 2026-05-07 19:56 | 41.28548 | 2.04470 | 479 ft | 136 kts | 65° |
| 2026-05-07 19:56 | 41.28940 | 2.05613 | 312 ft | 137 kts | 65° |
| 2026-05-07 19:57 | 41.29332 | 2.06754 | 140 ft | 135 kts | 65° |
| 2026-05-07 19:57 | 41.29713 | 2.07866 | 19 ft | 123 kts | 65° |
| 2026-05-07 19:57 | 41.30002 | 2.08708 | 24 ft | 76 kts | 65° |
| 2026-05-07 19:57 | 41.30126 | 2.09118 | 17 ft | 34 kts | 80° |
| 2026-05-07 19:58 | 41.30127 | 2.09363 | 15 ft | 18 kts | 96° |
| 2026-05-07 19:58 | 41.30073 | 2.09444 | 17 ft | 13 kts | 155° |
| 2026-05-07 19:58 | 41.29991 | 2.09478 | 16 ft | 12 kts | 189° |
| 2026-05-07 19:58 | 41.29940 | 2.09387 | 16 ft | 14 kts | 247° |
| 2026-05-07 19:59 | 41.29897 | 2.09259 | 16 ft | 17 kts | 245° |
| 2026-05-07 19:59 | 41.29843 | 2.09104 | 17 ft | 20 kts | 245° |
| 2026-05-07 19:59 | 41.29786 | 2.08934 | 19 ft | 20 kts | 246° |
| 2026-05-07 19:59 | 41.29722 | 2.08746 | 20 ft | 24 kts | 245° |
| 2026-05-07 20:00 | 41.29667 | 2.08590 | 17 ft | 10 kts | 243° |
| 2026-05-07 20:00 | 41.29636 | 2.08498 | 17 ft | 12 kts | 248° |
| 2026-05-07 20:00 | 41.29597 | 2.08384 | 17 ft | 15 kts | 246° |
| 2026-05-07 20:00 | 41.29546 | 2.08287 | 16 ft | 12 kts | 196° |
| 2026-05-07 20:01 | 41.29464 | 2.08319 | 17 ft | 13 kts | 156° |
| 2026-05-07 20:01 | 41.29407 | 2.08354 | 19 ft | 14 kts | 155° |
| 2026-05-07 20:01 | 41.29315 | 2.08410 | 22 ft | 15 kts | 158° |
| 2026-05-07 20:01 | 41.29227 | 2.08457 | 20 ft | 8 kts | 178° |
| 2026-05-07 20:02 | 41.29162 | 2.08429 | 20 ft | 12 kts | 198° |
| 2026-05-07 20:02 | 41.29070 | 2.08386 | 19 ft | 12 kts | 202° |
| 2026-05-07 20:02 | 41.29023 | 2.08285 | 19 ft | 14 kts | 246° |
| 2026-05-07 20:02 | 41.29002 | 2.08211 | 20 ft | 3 kts | 275° |
| 2026-05-07 20:03 | 41.29026 | 2.08187 | 19 ft | 6 kts | 332° |
| 2026-05-07 20:03 | 41.29062 | 2.08165 | 19 ft | 3 kts | 335° |
| 2026-05-07 20:03 | 41.29069 | 2.08160 | 19 ft | 2 kts | 335° |
| 2026-05-07 20:03 | 41.29071 | 2.08160 | 19 ft | 0 kts | 335° |